sensor_id;sensor_type;location;lat;lon;timestamp;temperature;humidity
19224;DHT22;9746;47.180;9.776;2022-07-04T05:05:58;18.60;99.90
19224;DHT22;9746;47.180;9.776;2022-07-04T05:08:26;18.70;99.90
19224;DHT22;9746;47.180;9.776;2022-07-04T05:10:53;18.90;99.90
19224;DHT22;9746;47.180;9.776;2022-07-04T05:13:21;18.90;99.90
19224;DHT22;9746;47.180;9.776;2022-07-04T05:15:48;19.00;99.90
19224;DHT22;9746;47.180;9.776;2022-07-04T05:18:17;19.10;99.90
19224;DHT22;9746;47.180;9.776;2022-07-04T05:20:44;19.10;99.90
19224;DHT22;9746;47.180;9.776;2022-07-04T05:23:14;19.20;99.90
19224;DHT22;9746;47.180;9.776;2022-07-04T05:25:41;19.20;99.90
19224;DHT22;9746;47.180;9.776;2022-07-04T05:28:08;19.30;99.90
19224;DHT22;9746;47.180;9.776;2022-07-04T05:30:36;19.40;99.90
19224;DHT22;9746;47.180;9.776;2022-07-04T05:33:04;19.50;99.90
19224;DHT22;9746;47.180;9.776;2022-07-04T09:52:29;22.00;99.90
19224;DHT22;9746;47.180;9.776;2022-07-04T09:54:58;22.20;99.90
19224;DHT22;9746;47.180;9.776;2022-07-04T09:57:26;22.40;99.90
19224;DHT22;9746;47.180;9.776;2022-07-04T09:59:53;22.60;99.90
19224;DHT22;9746;47.180;9.776;2022-07-04T10:02:21;22.70;99.90
19224;DHT22;9746;47.180;9.776;2022-07-04T10:04:50;22.80;99.90
19224;DHT22;9746;47.180;9.776;2022-07-04T10:07:33;23.10;99.90
19224;DHT22;9746;47.180;9.776;2022-07-04T10:10:21;23.40;99.90
19224;DHT22;9746;47.180;9.776;2022-07-04T10:12:50;23.80;99.90
19224;DHT22;9746;47.180;9.776;2022-07-04T10:15:18;24.10;99.90
19224;DHT22;9746;47.180;9.776;2022-07-04T10:17:46;24.50;99.90
19224;DHT22;9746;47.180;9.776;2022-07-04T10:20:14;24.80;99.90
19224;DHT22;9746;47.180;9.776;2022-07-04T10:22:44;24.90;99.90
19224;DHT22;9746;47.180;9.776;2022-07-04T10:25:12;25.30;99.90
19224;DHT22;9746;47.180;9.776;2022-07-04T10:27:40;25.60;99.90
19224;DHT22;9746;47.180;9.776;2022-07-04T10:30:13;25.90;99.90
19224;DHT22;9746;47.180;9.776;2022-07-04T10:32:44;26.10;99.90
19224;DHT22;9746;47.180;9.776;2022-07-04T10:35:14;26.20;99.90
19224;DHT22;9746;47.180;9.776;2022-07-04T10:38:04;26.40;99.90
19224;DHT22;9746;47.180;9.776;2022-07-04T10:40:40;26.60;99.90
19224;DHT22;9746;47.180;9.776;2022-07-04T10:46:48;27.20;99.90
19224;DHT22;9746;47.180;9.776;2022-07-04T10:49:22;27.30;99.90
19224;DHT22;9746;47.180;9.776;2022-07-04T10:51:53;27.60;99.90
19224;DHT22;9746;47.180;9.776;2022-07-04T10:54:29;27.70;99.90
19224;DHT22;9746;47.180;9.776;2022-07-04T10:57:05;27.90;99.90
19224;DHT22;9746;47.180;9.776;2022-07-04T10:59:35;28.10;99.90
19224;DHT22;9746;47.180;9.776;2022-07-04T11:02:27;28.40;99.90
19224;DHT22;9746;47.180;9.776;2022-07-04T11:04:58;28.70;99.90
19224;DHT22;9746;47.180;9.776;2022-07-04T11:08:00;28.70;99.90
19224;DHT22;9746;47.180;9.776;2022-07-04T11:10:37;28.70;99.90
19224;DHT22;9746;47.180;9.776;2022-07-04T11:13:07;28.60;99.90
19224;DHT22;9746;47.180;9.776;2022-07-04T11:16:00;28.00;99.90
19224;DHT22;9746;47.180;9.776;2022-07-04T11:18:28;27.80;99.90
19224;DHT22;9746;47.180;9.776;2022-07-04T11:20:57;27.80;99.90
19224;DHT22;9746;47.180;9.776;2022-07-04T11:23:24;27.70;99.90
19224;DHT22;9746;47.180;9.776;2022-07-04T11:25:53;27.80;99.90
19224;DHT22;9746;47.180;9.776;2022-07-04T11:28:25;28.00;99.90
19224;DHT22;9746;47.180;9.776;2022-07-04T11:30:55;28.10;99.90
19224;DHT22;9746;47.180;9.776;2022-07-04T11:33:24;28.10;99.90
19224;DHT22;9746;47.180;9.776;2022-07-04T11:36:03;28.40;99.90
19224;DHT22;9746;47.180;9.776;2022-07-04T11:38:48;28.60;99.90
19224;DHT22;9746;47.180;9.776;2022-07-04T11:41:22;29.10;99.90
19224;DHT22;9746;47.180;9.776;2022-07-04T11:44:08;29.60;99.90
19224;DHT22;9746;47.180;9.776;2022-07-04T11:47:08;30.30;99.90
19224;DHT22;9746;47.180;9.776;2022-07-04T11:49:43;30.50;99.90
19224;DHT22;9746;47.180;9.776;2022-07-04T11:52:12;31.00;99.90
19224;DHT22;9746;47.180;9.776;2022-07-04T11:54:41;31.40;99.90
19224;DHT22;9746;47.180;9.776;2022-07-04T11:57:18;31.10;99.90
19224;DHT22;9746;47.180;9.776;2022-07-04T11:59:54;31.20;99.90
19224;DHT22;9746;47.180;9.776;2022-07-04T12:02:22;31.20;99.90
19224;DHT22;9746;47.180;9.776;2022-07-04T12:04:50;31.60;99.90
19224;DHT22;9746;47.180;9.776;2022-07-04T12:07:19;32.50;99.90
19224;DHT22;9746;47.180;9.776;2022-07-04T12:09:47;33.50;99.90
19224;DHT22;9746;47.180;9.776;2022-07-04T12:12:17;34.40;99.90
19224;DHT22;9746;47.180;9.776;2022-07-04T12:14:58;35.20;99.90
19224;DHT22;9746;47.180;9.776;2022-07-04T12:17:34;35.90;99.90
19224;DHT22;9746;47.180;9.776;2022-07-04T12:20:03;36.00;99.90
19224;DHT22;9746;47.180;9.776;2022-07-04T12:22:35;35.90;99.90
19224;DHT22;9746;47.180;9.776;2022-07-04T12:25:05;36.20;99.90
19224;DHT22;9746;47.180;9.776;2022-07-04T12:27:36;36.00;99.90
19224;DHT22;9746;47.180;9.776;2022-07-04T12:30:05;35.90;99.90
19224;DHT22;9746;47.180;9.776;2022-07-04T12:32:46;35.60;99.90
19224;DHT22;9746;47.180;9.776;2022-07-04T12:35:40;35.50;99.90
19224;DHT22;9746;47.180;9.776;2022-07-04T12:38:12;35.90;99.90
19224;DHT22;9746;47.180;9.776;2022-07-04T12:40:51;36.90;99.90
19224;DHT22;9746;47.180;9.776;2022-07-04T12:43:20;38.10;99.90
19224;DHT22;9746;47.180;9.776;2022-07-04T12:45:49;39.00;99.90
19224;DHT22;9746;47.180;9.776;2022-07-04T12:48:22;39.90;99.90
19224;DHT22;9746;47.180;9.776;2022-07-04T12:50:50;40.70;98.80
19224;DHT22;9746;47.180;9.776;2022-07-04T12:53:19;41.30;95.50
19224;DHT22;9746;47.180;9.776;2022-07-04T12:55:48;42.10;94.90
19224;DHT22;9746;47.180;9.776;2022-07-04T12:58:16;41.50;91.60
19224;DHT22;9746;47.180;9.776;2022-07-04T13:00:45;40.90;91.30
19224;DHT22;9746;47.180;9.776;2022-07-04T13:03:12;40.20;91.30
19224;DHT22;9746;47.180;9.776;2022-07-04T13:05:41;40.40;92.60
19224;DHT22;9746;47.180;9.776;2022-07-04T13:08:09;39.70;90.30
19224;DHT22;9746;47.180;9.776;2022-07-04T13:10:37;38.90;92.10
19224;DHT22;9746;47.180;9.776;2022-07-04T13:13:05;39.70;91.80
19224;DHT22;9746;47.180;9.776;2022-07-04T13:15:33;40.60;91.10
19224;DHT22;9746;47.180;9.776;2022-07-04T13:18:02;41.80;90.00
19224;DHT22;9746;47.180;9.776;2022-07-04T13:20:29;42.40;85.10
19224;DHT22;9746;47.180;9.776;2022-07-04T13:22:57;43.20;84.50
19224;DHT22;9746;47.180;9.776;2022-07-04T13:25:24;43.70;88.20
19224;DHT22;9746;47.180;9.776;2022-07-04T13:27:53;43.30;83.90
19224;DHT22;9746;47.180;9.776;2022-07-04T13:30:21;41.30;83.10
19224;DHT22;9746;47.180;9.776;2022-07-04T13:32:48;40.30;86.10
19224;DHT22;9746;47.180;9.776;2022-07-04T13:35:17;40.50;86.20
19224;DHT22;9746;47.180;9.776;2022-07-04T13:37:45;40.60;87.30
19224;DHT22;9746;47.180;9.776;2022-07-04T13:40:13;40.40;86.80
19224;DHT22;9746;47.180;9.776;2022-07-04T13:42:40;40.10;87.10
19224;DHT22;9746;47.180;9.776;2022-07-04T13:45:26;39.70;89.90
19224;DHT22;9746;47.180;9.776;2022-07-04T13:47:54;38.60;90.00
19224;DHT22;9746;47.180;9.776;2022-07-04T13:50:23;37.70;90.10
19224;DHT22;9746;47.180;9.776;2022-07-04T13:52:51;36.80;91.40
19224;DHT22;9746;47.180;9.776;2022-07-04T13:55:19;37.40;91.40
19224;DHT22;9746;47.180;9.776;2022-07-04T13:57:47;38.70;90.20
19224;DHT22;9746;47.180;9.776;2022-07-04T14:00:15;39.20;87.00
19224;DHT22;9746;47.180;9.776;2022-07-04T14:02:44;39.60;88.00
19224;DHT22;9746;47.180;9.776;2022-07-04T14:05:12;40.10;86.50
19224;DHT22;9746;47.180;9.776;2022-07-04T14:07:41;39.80;86.20
19224;DHT22;9746;47.180;9.776;2022-07-04T14:10:08;39.20;87.50
19224;DHT22;9746;47.180;9.776;2022-07-04T14:12:36;38.30;89.10
19224;DHT22;9746;47.180;9.776;2022-07-04T14:15:04;37.60;90.20
19224;DHT22;9746;47.180;9.776;2022-07-04T14:17:32;36.40;91.30
19224;DHT22;9746;47.180;9.776;2022-07-04T14:20:00;35.50;92.00
19224;DHT22;9746;47.180;9.776;2022-07-04T14:22:31;34.90;93.40
19224;DHT22;9746;47.180;9.776;2022-07-04T14:24:59;34.40;94.00
19224;DHT22;9746;47.180;9.776;2022-07-04T14:27:30;33.90;94.50
19224;DHT22;9746;47.180;9.776;2022-07-04T14:29:57;33.30;95.10
19224;DHT22;9746;47.180;9.776;2022-07-04T14:32:25;32.80;96.10
19224;DHT22;9746;47.180;9.776;2022-07-04T14:34:52;31.90;96.80
19224;DHT22;9746;47.180;9.776;2022-07-04T14:37:20;31.30;98.40
19224;DHT22;9746;47.180;9.776;2022-07-04T14:39:47;31.20;98.80
19224;DHT22;9746;47.180;9.776;2022-07-04T14:42:17;30.90;99.70
19224;DHT22;9746;47.180;9.776;2022-07-04T14:44:44;30.30;99.90
19224;DHT22;9746;47.180;9.776;2022-07-04T14:47:12;30.00;99.90
19224;DHT22;9746;47.180;9.776;2022-07-04T14:49:39;29.80;99.90
19224;DHT22;9746;47.180;9.776;2022-07-04T14:52:07;29.70;99.90
19224;DHT22;9746;47.180;9.776;2022-07-04T14:54:35;29.30;99.90
19224;DHT22;9746;47.180;9.776;2022-07-04T14:57:03;29.20;99.90
19224;DHT22;9746;47.180;9.776;2022-07-04T14:59:34;29.00;99.90
19224;DHT22;9746;47.180;9.776;2022-07-04T15:02:03;28.80;99.90
19224;DHT22;9746;47.180;9.776;2022-07-04T15:04:31;28.60;99.90
19224;DHT22;9746;47.180;9.776;2022-07-04T15:06:59;28.50;99.90
19224;DHT22;9746;47.180;9.776;2022-07-04T15:09:28;28.10;99.90
19224;DHT22;9746;47.180;9.776;2022-07-04T15:11:56;28.00;99.90
19224;DHT22;9746;47.180;9.776;2022-07-04T15:14:23;27.70;99.90
19224;DHT22;9746;47.180;9.776;2022-07-04T15:16:52;27.60;99.90
19224;DHT22;9746;47.180;9.776;2022-07-04T15:19:20;27.50;99.90
19224;DHT22;9746;47.180;9.776;2022-07-04T15:21:48;27.40;99.90
19224;DHT22;9746;47.180;9.776;2022-07-04T15:24:33;27.20;99.90
19224;DHT22;9746;47.180;9.776;2022-07-04T15:27:00;26.90;99.90
19224;DHT22;9746;47.180;9.776;2022-07-04T15:29:28;26.60;99.90
19224;DHT22;9746;47.180;9.776;2022-07-04T15:31:58;26.20;99.90
19224;DHT22;9746;47.180;9.776;2022-07-04T15:34:26;25.70;99.90
19224;DHT22;9746;47.180;9.776;2022-07-04T15:36:53;25.50;99.90
19224;DHT22;9746;47.180;9.776;2022-07-04T15:39:21;25.30;99.90
19224;DHT22;9746;47.180;9.776;2022-07-04T15:41:49;25.10;99.90
19224;DHT22;9746;47.180;9.776;2022-07-04T15:44:17;24.90;99.90
19224;DHT22;9746;47.180;9.776;2022-07-04T15:46:47;24.60;99.90
19224;DHT22;9746;47.180;9.776;2022-07-04T15:49:33;24.20;99.90
19224;DHT22;9746;47.180;9.776;2022-07-04T15:52:01;23.80;99.90
19224;DHT22;9746;47.180;9.776;2022-07-04T15:54:30;23.70;99.90
19224;DHT22;9746;47.180;9.776;2022-07-04T15:56:58;23.40;99.90
19224;DHT22;9746;47.180;9.776;2022-07-04T15:59:27;23.10;99.90
19224;DHT22;9746;47.180;9.776;2022-07-04T16:01:54;22.70;99.90
19224;DHT22;9746;47.180;9.776;2022-07-04T16:04:22;22.10;99.90
19224;DHT22;9746;47.180;9.776;2022-07-04T16:06:51;21.30;99.90
19224;DHT22;9746;47.180;9.776;2022-07-04T16:09:19;20.60;99.90
19224;DHT22;9746;47.180;9.776;2022-07-04T16:11:46;20.10;99.90
19224;DHT22;9746;47.180;9.776;2022-07-04T16:14:16;19.70;99.90
19224;DHT22;9746;47.180;9.776;2022-07-04T16:16:44;19.40;99.90
19224;DHT22;9746;47.180;9.776;2022-07-04T16:19:12;19.20;99.90
19224;DHT22;9746;47.180;9.776;2022-07-04T16:21:40;19.10;99.90
19224;DHT22;9746;47.180;9.776;2022-07-04T16:24:10;19.00;99.90
19224;DHT22;9746;47.180;9.776;2022-07-04T16:26:38;19.00;99.90
19224;DHT22;9746;47.180;9.776;2022-07-04T16:29:06;19.10;99.90
19224;DHT22;9746;47.180;9.776;2022-07-04T16:31:35;19.10;99.90
19224;DHT22;9746;47.180;9.776;2022-07-04T16:34:03;19.20;99.90
19224;DHT22;9746;47.180;9.776;2022-07-04T16:36:31;19.20;99.90
19224;DHT22;9746;47.180;9.776;2022-07-04T16:38:58;19.20;99.90
19224;DHT22;9746;47.180;9.776;2022-07-04T16:41:27;19.20;99.90
19224;DHT22;9746;47.180;9.776;2022-07-04T16:43:55;19.20;99.90
19224;DHT22;9746;47.180;9.776;2022-07-04T16:46:23;19.20;99.90
19224;DHT22;9746;47.180;9.776;2022-07-04T16:48:50;19.20;99.90
19224;DHT22;9746;47.180;9.776;2022-07-04T16:51:19;19.20;99.90
19224;DHT22;9746;47.180;9.776;2022-07-04T16:53:46;19.30;99.90
19224;DHT22;9746;47.180;9.776;2022-07-04T16:56:14;19.40;99.90
19224;DHT22;9746;47.180;9.776;2022-07-04T16:58:43;19.50;99.90
19224;DHT22;9746;47.180;9.776;2022-07-04T17:01:11;19.60;99.90
19224;DHT22;9746;47.180;9.776;2022-07-04T17:03:38;19.60;99.90
19224;DHT22;9746;47.180;9.776;2022-07-04T17:06:06;19.40;99.90
19224;DHT22;9746;47.180;9.776;2022-07-04T17:08:36;19.50;99.90
19224;DHT22;9746;47.180;9.776;2022-07-04T17:11:05;19.40;99.90
19224;DHT22;9746;47.180;9.776;2022-07-04T17:13:33;19.40;99.90
19224;DHT22;9746;47.180;9.776;2022-07-04T17:16:03;19.30;99.90
19224;DHT22;9746;47.180;9.776;2022-07-04T17:18:31;19.10;99.90
19224;DHT22;9746;47.180;9.776;2022-07-04T17:20:58;18.90;99.90
19224;DHT22;9746;47.180;9.776;2022-07-04T17:23:26;18.90;99.90
19224;DHT22;9746;47.180;9.776;2022-07-04T17:25:54;18.70;99.90
19224;DHT22;9746;47.180;9.776;2022-07-04T17:28:21;18.40;99.90
19224;DHT22;9746;47.180;9.776;2022-07-04T17:30:49;18.60;99.90
19224;DHT22;9746;47.180;9.776;2022-07-04T17:33:19;18.70;99.90
19224;DHT22;9746;47.180;9.776;2022-07-04T17:35:47;18.90;99.90
19224;DHT22;9746;47.180;9.776;2022-07-04T17:38:14;19.00;99.90
19224;DHT22;9746;47.180;9.776;2022-07-04T17:40:42;19.20;99.90
19224;DHT22;9746;47.180;9.776;2022-07-04T17:43:29;19.30;99.90
19224;DHT22;9746;47.180;9.776;2022-07-04T17:45:57;19.30;99.90
19224;DHT22;9746;47.180;9.776;2022-07-04T17:48:26;19.50;99.90
19224;DHT22;9746;47.180;9.776;2022-07-04T17:50:53;19.50;99.90
19224;DHT22;9746;47.180;9.776;2022-07-04T17:53:20;19.70;99.90
19224;DHT22;9746;47.180;9.776;2022-07-04T17:55:48;19.60;99.90
19224;DHT22;9746;47.180;9.776;2022-07-04T17:58:17;19.80;99.90
19224;DHT22;9746;47.180;9.776;2022-07-04T18:00:44;19.80;99.90
19224;DHT22;9746;47.180;9.776;2022-07-04T18:03:11;19.70;99.90
19224;DHT22;9746;47.180;9.776;2022-07-04T18:05:40;19.60;99.90
19224;DHT22;9746;47.180;9.776;2022-07-04T18:08:08;19.60;99.90
19224;DHT22;9746;47.180;9.776;2022-07-04T18:10:35;19.60;99.90
19224;DHT22;9746;47.180;9.776;2022-07-04T18:13:03;19.60;99.90
19224;DHT22;9746;47.180;9.776;2022-07-04T18:15:30;19.60;99.90
19224;DHT22;9746;47.180;9.776;2022-07-04T18:17:58;19.60;99.90
19224;DHT22;9746;47.180;9.776;2022-07-04T18:20:26;19.50;99.90
19224;DHT22;9746;47.180;9.776;2022-07-04T18:22:54;19.50;99.90
19224;DHT22;9746;47.180;9.776;2022-07-04T18:25:23;19.40;99.90
19224;DHT22;9746;47.180;9.776;2022-07-04T18:27:51;19.30;99.90
19224;DHT22;9746;47.180;9.776;2022-07-04T18:30:18;19.30;99.90
19224;DHT22;9746;47.180;9.776;2022-07-04T18:32:46;19.20;99.90
19224;DHT22;9746;47.180;9.776;2022-07-04T18:35:14;19.10;99.90
19224;DHT22;9746;47.180;9.776;2022-07-04T18:37:41;19.00;99.90
19224;DHT22;9746;47.180;9.776;2022-07-04T18:40:10;19.00;99.90
19224;DHT22;9746;47.180;9.776;2022-07-04T18:42:51;19.00;99.90
19224;DHT22;9746;47.180;9.776;2022-07-04T18:45:36;19.00;99.90
19224;DHT22;9746;47.180;9.776;2022-07-04T18:48:04;19.00;99.90
19224;DHT22;9746;47.180;9.776;2022-07-04T18:50:32;19.10;99.90
19224;DHT22;9746;47.180;9.776;2022-07-04T18:52:59;19.00;99.90
19224;DHT22;9746;47.180;9.776;2022-07-04T18:55:28;19.00;99.90
19224;DHT22;9746;47.180;9.776;2022-07-04T18:57:56;19.00;99.90
19224;DHT22;9746;47.180;9.776;2022-07-04T19:00:23;19.00;99.90
19224;DHT22;9746;47.180;9.776;2022-07-04T19:02:51;19.00;99.90
19224;DHT22;9746;47.180;9.776;2022-07-04T19:05:18;19.00;99.90
19224;DHT22;9746;47.180;9.776;2022-07-04T19:07:46;18.90;99.90
19224;DHT22;9746;47.180;9.776;2022-07-04T19:10:13;18.90;99.90
19224;DHT22;9746;47.180;9.776;2022-07-04T19:12:42;18.80;99.90
19224;DHT22;9746;47.180;9.776;2022-07-04T19:15:10;18.70;99.90
19224;DHT22;9746;47.180;9.776;2022-07-04T19:17:38;18.60;99.90
19224;DHT22;9746;47.180;9.776;2022-07-04T19:20:08;18.50;99.90
19224;DHT22;9746;47.180;9.776;2022-07-04T19:22:35;18.50;99.90
19224;DHT22;9746;47.180;9.776;2022-07-04T19:25:03;18.60;99.90
19224;DHT22;9746;47.180;9.776;2022-07-04T19:27:31;18.60;99.90
19224;DHT22;9746;47.180;9.776;2022-07-04T19:30:05;18.40;99.90
19224;DHT22;9746;47.180;9.776;2022-07-04T19:32:34;18.10;99.90
19224;DHT22;9746;47.180;9.776;2022-07-04T19:35:01;18.10;99.90
19224;DHT22;9746;47.180;9.776;2022-07-04T19:37:29;18.00;99.90
19224;DHT22;9746;47.180;9.776;2022-07-04T19:39:57;17.90;99.90
19224;DHT22;9746;47.180;9.776;2022-07-04T19:42:24;17.80;99.90
19224;DHT22;9746;47.180;9.776;2022-07-04T19:44:54;17.80;99.90
19224;DHT22;9746;47.180;9.776;2022-07-04T19:47:23;17.90;99.90
19224;DHT22;9746;47.180;9.776;2022-07-04T19:49:52;18.00;99.90
19224;DHT22;9746;47.180;9.776;2022-07-04T19:52:21;18.10;99.90
19224;DHT22;9746;47.180;9.776;2022-07-04T19:55:04;18.10;99.90
19224;DHT22;9746;47.180;9.776;2022-07-04T19:57:33;18.10;99.90
